WetterOnline ( https://www.wetteronline.de )

Wetter aktuell Gießen

Aktuelles Wetter: Gießen (195m)

6-stündlich | Neueste Meldungen
Ortszeit Temperatur Wetter
Sa, 25.05. 8:00 13.3° C bedeckt
Sa, 25.05. 2:00 12.2° C wolkig
Fr, 24.05. 20:00 14.8° C leichter Regen
Fr, 24.05. 14:00 15.6° C leichter Regen
Fr, 24.05. 8:00 13.2° C leichter Regen
Fr, 24.05. 2:00 13.4° C bewölkt
Do, 23.05. 20:00 17.6° C leichter Regen
Do, 23.05. 14:00 20.5° C wolkenlos
Ortszeit Temperatur Wetter
Sa, 25.05. 12:30 17.1° C wolkig
Sa, 25.05. 12:20 17.1° C wolkig
Sa, 25.05. 12:10 17.2° C wolkig
Sa, 25.05. 12:00 16.7° C leicht bewölkt
Sa, 25.05. 11:50 16.7° C leicht bewölkt
Sa, 25.05. 11:40 16.0° C wolkig
Sa, 25.05. 11:30 16.0° C bewölkt
Sa, 25.05. 11:00 16.3° C bewölkt
Sa, 25.05. 10:30 15.0° C bewölkt
Sa, 25.05. 10:00 15.0° C bedeckt
Sa, 25.05. 9:30 14.6° C bedeckt
Ortszeit Relative Feuchte Sichtweite
Sa, 25.05. 8:00 94% 10 km
Sa, 25.05. 2:00 99% 3.0 km
Fr, 24.05. 20:00 94% 28 km
Fr, 24.05. 14:00 88% 35 km
Fr, 24.05. 8:00 97% 8 km
Fr, 24.05. 2:00 89% 40 km
Do, 23.05. 20:00 66% 55 km
Do, 23.05. 14:00 49% 40 km
Ortszeit Relative Feuchte Sichtweite
Sa, 25.05. 12:30 77% 26 km
Sa, 25.05. 12:20 77% -
Sa, 25.05. 12:10 77% -
Sa, 25.05. 12:00 78% 28 km
Sa, 25.05. 11:50 78% -
Sa, 25.05. 11:40 79% -
Sa, 25.05. 11:30 81% 27 km
Sa, 25.05. 11:00 80% 28 km
Sa, 25.05. 10:30 87% 23 km
Sa, 25.05. 10:00 85% 21 km
Sa, 25.05. 9:30 86% 19 km
Ortszeit Niederschlagsmenge Niederschlagsart
Sa, 25.05. 8:00 1 l/m2 in 12 Std. Regen
Sa, 25.05. 2:00 1 l/m2 in 6 Std. Regen
Fr, 24.05. 20:00 6 l/m2 in 12 Std. Regen
Fr, 24.05. 14:00 5 l/m2 in 6 Std. Regen
Fr, 24.05. 8:00 3 l/m2 in 12 Std. Regen
Fr, 24.05. 2:00 0.1 l/m2 in 6 Std. Regen
Do, 23.05. 20:00 0.1 l/m2 in 12 Std. Regen
Do, 23.05. 14:00 0.0 l/m2 in 6 Std. -
Ortszeit Niederschlagsmenge Niederschlagsart
Sa, 25.05. 12:30 0.0 l/m2 in 30 Min -
Sa, 25.05. 12:20 keine Meldung -
Sa, 25.05. 12:10 keine Meldung -
Sa, 25.05. 12:00 0.0 l/m2 in 1 Std. -
Sa, 25.05. 11:50 keine Meldung -
Sa, 25.05. 11:40 keine Meldung -
Sa, 25.05. 11:30 0.0 l/m2 in 30 Min -
Sa, 25.05. 11:00 0.0 l/m2 in 1 Std. -
Sa, 25.05. 10:30 0.0 l/m2 in 30 Min -
Sa, 25.05. 10:00 <0.05 l/m2 in 1 Std. -
Sa, 25.05. 9:30 <0.05 l/m2 in 30 Min -
Ortszeit Stärke Spitze Richtung
km/h Bft. km/h Grad Sektor
Sa, 25.05. 8:00 7 2 11 170° S
Sa, 25.05. 2:00 4 1 11 50° NO
Fr, 24.05. 20:00 7 2 18 220° SW
Fr, 24.05. 14:00 7 2 18 250° W
Fr, 24.05. 8:00 6 1 17 360° N
Fr, 24.05. 2:00 7 2 14 290° W
Do, 23.05. 20:00 4 1 25 50° NO
Do, 23.05. 14:00 14 3 29 230° SW
Ortszeit Stärke Spitze Richtung
km/h Bft. km/h Grad Sektor
Sa, 25.05. 12:30 11 2 18 130° SO
Sa, 25.05. 12:20 11 2 - 130° SO
Sa, 25.05. 12:10 7 2 - 110° O
Sa, 25.05. 12:00 11 2 20 130° SO
Sa, 25.05. 11:50 11 2 - 130° SO
Sa, 25.05. 11:40 13 3 - 140° SO
Sa, 25.05. 11:30 11 2 18 140° SO
Sa, 25.05. 11:00 7 2 14 120° SO
Sa, 25.05. 10:30 7 2 14 180° S
Sa, 25.05. 10:00 4 1 11 180° S
Sa, 25.05. 9:30 4 1 7 100° O
Ortszeit Untergrenze Bedeckung Gattung
total tief tief mittel hoch
Sa, 25.05. 8:00 150 m 8/8 8/8 - - -
Sa, 25.05. 2:00 1800 m 5/8 5/8 - - -
Fr, 24.05. 20:00 1800 m 7/8 7/8 - - -
Fr, 24.05. 14:00 1500 m 7/8 7/8 - - -
Fr, 24.05. 8:00 150 m 7/8 7/8 - - -
Fr, 24.05. 2:00 2100 m 8/8 6/8 - - -
Do, 23.05. 20:00 1800 m 8/8 8/8 - - -
Do, 23.05. 14:00 - 0/8 0/8 - - -
Ortszeit Bedeckungsgrad in Achtel und Wolkenuntergrenze
Sa, 25.05. 12:30 4(510m) 4(870m) 5(2700m)
Sa, 25.05. 12:20 4(510m) 4(870m) 5(2700m)
Sa, 25.05. 12:10 5
Sa, 25.05. 12:00 4(480m)
Sa, 25.05. 11:50 4(480m)
Sa, 25.05. 11:40 5
Sa, 25.05. 11:30 6(420m) 7(630m) 7(780m)
Sa, 25.05. 11:00 6(390m) 7(720m)
Sa, 25.05. 10:30 7(300m) 7(420m)
Sa, 25.05. 10:00 5(240m) 8(450m)
Sa, 25.05. 9:30 6(240m) 8(450m)
Ortszeit Luftdruck NN (hPa) Tendenz (hPa in 3 Std.)
Sa, 25.05. 8:00 1017 + 0,3
Sa, 25.05. 2:00 1017 + 0,1
Fr, 24.05. 20:00 1016 - 0,4
Fr, 24.05. 14:00 1017 - 0,4
Fr, 24.05. 8:00 1018 + 0,4
Fr, 24.05. 2:00 1017 + 0,2
Do, 23.05. 20:00 1015 + 0,5
Do, 23.05. 14:00 1015 - 0,7
Ortszeit Luftdruck NN (hPa) Tendenz (hPa in 3 Std.)
Sa, 25.05. 12:30 1017 + 0,2
Sa, 25.05. 12:20 1017 keine Meldung
Sa, 25.05. 12:10 1017 keine Meldung
Sa, 25.05. 12:00 1018 + 0,3
Sa, 25.05. 11:50 1018 keine Meldung
Sa, 25.05. 11:40 1018 keine Meldung
Sa, 25.05. 11:30 1018 + 0,4
Sa, 25.05. 11:00 1017 + 0,5
Sa, 25.05. 10:30 1018 + 0,7
Sa, 25.05. 10:00 1017 + 0,5
Sa, 25.05. 9:30 1017 + 0,5
Ortszeit Schneehöhe (cm)
Sa, 25.05. 8:00 0
Sa, 25.05. 2:00 0
Fr, 24.05. 20:00 0
Fr, 24.05. 14:00 0
Fr, 24.05. 8:00 0
Fr, 24.05. 2:00 0
Do, 23.05. 20:00 0
Do, 23.05. 14:00 0
Ortszeit Schneehöhe (cm)
Sa, 25.05. 12:30 0
Sa, 25.05. 12:20 0
Sa, 25.05. 12:10 -
Sa, 25.05. 12:00 0
Sa, 25.05. 11:50 0
Sa, 25.05. 11:40 -
Sa, 25.05. 11:30 0
Sa, 25.05. 11:00 0
Sa, 25.05. 10:30 0
Sa, 25.05. 10:00 0
Sa, 25.05. 9:30 0
Link zu dieser Seite / Seite empfehlen

Das Wetter in ...